YTRE

Taree Airport

Taree, Australia
TAF YTRE 211756Z 2119/2208 04007KT 9999 -SHRA SCT010 SCT080 FM212200 02010KT 9999 -SHRA SCT020 SCT090 FM220200 04014KT 9999 -SHRA SCT020 SCT050 PROB30 INTER 2203/2208 VRB25G35KT 2000 TSRA BKN010 SCT060CB
Issued Valid From Valid To
Jan-21 @ 17:56 UTC
(6 hours ago)
Jan-21 @ 19:00 UTC
(5 hours ago)
Jan-22 @ 08:00 UTC
(in 8 hours)
Expired Click to View Jan-21 @ 19:00 to Jan-21 @ 22:00
TAF YTRE 211756Z 2119/2208 04007KT 9999 -SHRA SCT010 SCT080
Wind Visibility Clouds Conditions
40° at 7 knots 10,000+ meters
  • Scattered at 1,000' AGL
  • Scattered at 8,000' AGL
  • Light Rain
From Jan-21 @ 22:00 to Jan-22 @ 02:00
FM212200 02010KT 9999 -SHRA SCT020 SCT090
Wind Visibility Clouds Conditions
20° at 10 knots 10,000+ meters
  • Scattered at 2,000' AGL
  • Scattered at 9,000' AGL
  • Light Rain
From Jan-22 @ 02:00 to Jan-22 @ 08:00
FM220200 04014KT 9999 -SHRA SCT020 SCT050
Wind Visibility Clouds Conditions
40° at 14 knots 10,000+ meters
  • Scattered at 2,000' AGL
  • Scattered at 5,000' AGL
  • Light Rain
Temporary  (Probability 30%) Jan-22 @ 03:00 to Jan-22 @ 08:00
PROB30 INTER 2203/2208 VRB25G35KT 2000 TSRA BKN010 SCT060CB
Wind Visibility Clouds Conditions
Variable at 25 knots
 Gusting to 35 knots
1,996 meters
  • Broken at 1,000' AGL
  • Scattered at 6,000' AGL
  • Thunderstorm
  • Rain
TAF YTRE 211756Z 2119/2208 04007KT 9999 -SHRA SCT010 SCT080 FM212200 02010KT 9999 -SHRA SCT020 SCT090 FM220200 04014KT 9999 -SHRA SCT020 SCT050 PROB30 INTER 2203/2208 VRB25G35KT 2000 TSRA BKN010 SCT060CB
Issued Jan-21 @ 17:56 UTC
(6 hours ago)
Valid From Jan-21 @ 19:00 UTC
(5 hours ago)
Valid To Jan-22 @ 08:00 UTC
(in 8 hours)
Jan-21 @ 19:00 - Jan-21 @ 22:00
Wind Visibility
40° at 7 knots 10,000+ meters
Clouds
  • Scattered at 1,000' AGL
  • Scattered at 8,000' AGL
Conditions
  • Light Rain
From Jan-21 @ 22:00 - Jan-22 @ 02:00
Wind Visibility
20° at 10 knots 10,000+ meters
Clouds
  • Scattered at 2,000' AGL
  • Scattered at 9,000' AGL
Conditions
  • Light Rain
From Jan-22 @ 02:00 - Jan-22 @ 08:00
Wind Visibility
40° at 14 knots 10,000+ meters
Clouds
  • Scattered at 2,000' AGL
  • Scattered at 5,000' AGL
Conditions
  • Light Rain
Probability 30% Temporary Jan-22 @ 03:00 - Jan-22 @ 08:00
Wind Visibility
Variable at 25 knots
 Gusting to 35 knots
1,996 meters
Clouds
  • Broken at 1,000' AGL
  • Scattered at 6,000' AGL
Conditions
  • Thunderstorm
  • Rain